createdAt,value
2023-05-16T00:00:09.354Z,13.93
2023-05-16T00:03:13.180Z,13.91
2023-05-16T00:06:16.955Z,13.76
2023-05-16T00:09:19.356Z,13.87
2023-05-16T00:12:22.833Z,13.86
2023-05-16T00:15:25.401Z,13.91
2023-05-16T00:18:28.770Z,13.89
2023-05-16T00:21:31.905Z,13.82
2023-05-16T00:24:34.926Z,13.87
2023-05-16T00:27:37.721Z,13.85
2023-05-16T00:30:40.777Z,13.78
2023-05-16T00:33:43.161Z,13.78
2023-05-16T00:36:45.532Z,13.78
2023-05-16T00:39:47.970Z,13.62
2023-05-16T00:42:50.374Z,13.76
2023-05-16T00:45:53.945Z,13.80
2023-05-16T00:48:56.564Z,13.79
2023-05-16T00:51:59.277Z,13.76
2023-05-16T00:55:02.576Z,13.82
2023-05-16T00:58:05.762Z,13.99
2023-05-16T01:01:08.859Z,13.73
2023-05-16T01:04:12.868Z,13.78
2023-05-16T01:07:15.468Z,13.67
2023-05-16T01:10:17.901Z,13.79
2023-05-16T01:14:00.936Z,13.78
2023-05-16T01:17:13.969Z,13.70
2023-05-16T01:20:33.875Z,13.60
2023-05-16T01:23:53.621Z,13.69
2023-05-16T01:26:56.568Z,13.68
2023-05-16T01:29:59.027Z,13.59
2023-05-16T01:33:01.459Z,13.54
2023-05-16T01:36:08.827Z,13.50
2023-05-16T01:39:29.597Z,13.55
2023-05-16T01:42:35.327Z,13.47
2023-05-16T01:45:44.200Z,13.59
2023-05-16T01:49:01.522Z,13.63
2023-05-16T01:52:10.728Z,13.53
2023-05-16T01:55:32.401Z,13.43
2023-05-16T01:58:37.314Z,13.46
2023-05-16T02:01:39.782Z,13.38
2023-05-16T02:04:42.192Z,13.44
2023-05-16T02:07:45.150Z,13.47
2023-05-16T02:10:47.689Z,13.41
2023-05-16T02:13:50.422Z,13.46
2023-05-16T02:16:52.985Z,13.44
2023-05-16T02:19:55.375Z,13.40
2023-05-16T02:22:57.862Z,13.38
2023-05-16T02:26:00.480Z,13.52
2023-05-16T02:29:03.198Z,13.59
2023-05-16T02:32:06.200Z,13.45
2023-05-16T02:35:08.861Z,13.37
2023-05-16T02:38:11.315Z,13.31
2023-05-16T02:41:13.814Z,13.20
2023-05-16T02:44:17.714Z,13.14
2023-05-16T02:47:20.165Z,13.15
2023-05-16T02:50:22.526Z,13.10
2023-05-16T02:53:24.951Z,13.04
2023-05-16T02:56:27.771Z,13.18
2023-05-16T02:59:30.285Z,13.10
2023-05-16T03:02:32.888Z,13.03
2023-05-16T03:05:35.586Z,13.10
2023-05-16T03:08:38.303Z,13.03
2023-05-16T03:11:40.850Z,13.11
2023-05-16T03:14:43.315Z,13.16
2023-05-16T03:17:45.823Z,13.18
2023-05-16T03:20:48.291Z,13.22
2023-05-16T03:23:51.378Z,13.13
2023-05-16T03:26:54.084Z,13.13
2023-05-16T03:29:56.892Z,12.99
2023-05-16T03:32:59.337Z,13.05
2023-05-16T03:36:02.143Z,13.05
2023-05-16T03:39:04.629Z,13.12
2023-05-16T03:42:07.725Z,13.29
2023-05-16T03:45:12.622Z,13.32
2023-05-16T03:48:15.138Z,13.37
2023-05-16T03:51:17.568Z,13.38
2023-05-16T03:54:19.966Z,13.40
2023-05-16T03:57:22.690Z,13.51
2023-05-16T04:00:25.639Z,13.53
2023-05-16T04:03:29.679Z,13.61
2023-05-16T04:06:32.748Z,13.52
2023-05-16T04:09:35.355Z,13.51
2023-05-16T04:12:38.219Z,13.47
2023-05-16T04:15:40.804Z,13.60
2023-05-16T04:18:43.262Z,13.66
2023-05-16T04:21:46.122Z,13.71
2023-05-16T04:24:49.154Z,13.76
2023-05-16T04:27:52.656Z,13.75
2023-05-16T04:30:55.540Z,13.80
2023-05-16T04:33:58.098Z,13.71
2023-05-16T04:37:00.480Z,13.88
2023-05-16T04:40:03.137Z,13.94
2023-05-16T04:43:06.773Z,13.93
2023-05-16T04:46:10.092Z,13.92
2023-05-16T04:49:12.964Z,13.92
2023-05-16T04:52:15.368Z,13.91
2023-05-16T04:55:17.960Z,14.02
2023-05-16T04:58:20.596Z,13.98
2023-05-16T05:01:23.108Z,13.88
2023-05-16T05:04:26.006Z,13.97
2023-05-16T05:07:29.226Z,14.05
2023-05-16T05:10:31.798Z,13.82
2023-05-16T05:13:34.225Z,13.95
2023-05-16T05:16:37.567Z,13.84
2023-05-16T05:19:40.029Z,13.83
2023-05-16T05:22:42.559Z,13.93
2023-05-16T05:25:45.612Z,13.88
2023-05-16T05:29:01.189Z,13.90
2023-05-16T05:32:08.426Z,13.80
2023-05-16T05:35:11.225Z,13.84
2023-05-16T05:38:13.657Z,13.85
2023-05-16T05:41:16.131Z,13.83
2023-05-16T05:44:18.562Z,13.85
2023-05-16T05:47:21.815Z,13.79
2023-05-16T05:50:24.356Z,13.88
2023-05-16T05:53:27.256Z,13.84
2023-05-16T05:56:29.738Z,13.95
2023-05-16T05:59:33.187Z,14.00
2023-05-16T06:02:36.774Z,14.11
2023-05-16T06:05:39.363Z,14.10
2023-05-16T06:08:41.833Z,14.03
2023-05-16T06:11:45.976Z,14.13
2023-05-16T06:14:48.523Z,14.24
2023-05-16T06:17:51.084Z,14.28
2023-05-16T06:20:54.144Z,14.29
2023-05-16T06:23:56.616Z,14.36
2023-05-16T06:26:59.269Z,14.19
2023-05-16T06:30:01.971Z,14.24
2023-05-16T06:33:04.460Z,14.19
2023-05-16T06:36:07.673Z,14.04
2023-05-16T06:39:11.710Z,14.30
2023-05-16T06:42:14.243Z,14.34
2023-05-16T06:45:16.773Z,14.32
2023-05-16T06:48:19.715Z,14.33
2023-05-16T06:51:22.314Z,14.21
2023-05-16T06:54:25.134Z,14.34
2023-05-16T06:57:29.490Z,14.35
2023-05-16T07:00:32.398Z,14.45
2023-05-16T07:03:35.072Z,14.32
2023-05-16T07:06:37.639Z,14.41
2023-05-16T07:09:40.074Z,14.55
2023-05-16T07:12:43.201Z,14.40
2023-05-16T07:15:45.687Z,14.45
2023-05-16T07:18:48.311Z,14.43
2023-05-16T07:21:50.920Z,14.51
2023-05-16T07:24:57.170Z,14.51
2023-05-16T07:28:01.015Z,14.54
2023-05-16T07:31:03.807Z,14.59
2023-05-16T07:34:06.950Z,14.35
2023-05-16T07:37:13.188Z,14.59
2023-05-16T07:40:15.774Z,14.63
2023-05-16T07:43:18.500Z,14.74
2023-05-16T07:46:21.118Z,14.75
2023-05-16T07:49:23.633Z,14.74
2023-05-16T07:52:26.399Z,14.79
2023-05-16T07:55:29.211Z,14.68
2023-05-16T07:58:31.799Z,14.66
2023-05-16T08:01:34.509Z,14.57
2023-05-16T08:04:37.731Z,14.53
2023-05-16T08:07:40.425Z,14.37
2023-05-16T08:10:42.904Z,14.31
2023-05-16T08:13:45.517Z,14.44
2023-05-16T08:16:48.137Z,14.51
2023-05-16T08:19:50.644Z,14.53
2023-05-16T08:22:53.758Z,14.58
2023-05-16T08:25:56.168Z,14.64
2023-05-16T08:28:58.592Z,14.63
2023-05-16T08:32:01.204Z,14.73
2023-05-16T08:35:06.664Z,14.77
2023-05-16T08:38:09.163Z,14.79
2023-05-16T08:41:11.828Z,14.86
2023-05-16T08:44:21.331Z,14.91
2023-05-16T08:47:27.208Z,14.88
2023-05-16T08:50:32.151Z,14.77
2023-05-16T08:53:41.432Z,14.83
2023-05-16T08:56:45.738Z,14.75
2023-05-16T08:59:48.252Z,14.68
2023-05-16T09:02:51.493Z,14.75
2023-05-16T09:05:54.005Z,14.84
2023-05-16T09:08:56.950Z,14.68
2023-05-16T09:11:59.454Z,14.76
2023-05-16T09:15:06.992Z,14.73
2023-05-16T09:18:14.124Z,14.74
2023-05-16T09:21:17.192Z,14.83
2023-05-16T09:24:26.402Z,14.83
2023-05-16T09:27:31.270Z,14.89
2023-05-16T09:30:35.065Z,14.81
2023-05-16T09:33:42.657Z,14.74
2023-05-16T09:36:45.119Z,14.73
2023-05-16T09:39:53.155Z,14.68
2023-05-16T09:43:07.647Z,14.65
2023-05-16T09:46:17.162Z,14.59
2023-05-16T09:49:20.171Z,14.50
2023-05-16T09:52:22.870Z,14.64
2023-05-16T09:55:25.950Z,14.77
2023-05-16T09:58:30.176Z,14.79
2023-05-16T10:01:33.265Z,14.69
2023-05-16T10:04:36.023Z,14.63
2023-05-16T10:07:40.570Z,14.61
2023-05-16T10:10:43.287Z,14.58
2023-05-16T10:13:50.736Z,14.75
2023-05-16T10:16:53.821Z,14.72
2023-05-16T10:19:56.514Z,14.80
2023-05-16T10:22:59.863Z,14.81
2023-05-16T10:26:06.103Z,14.82
2023-05-16T10:29:10.379Z,14.88
2023-05-16T10:32:14.016Z,15.11
2023-05-16T10:35:16.800Z,15.10
2023-05-16T10:38:21.399Z,15.04
2023-05-16T10:41:24.448Z,15.08
2023-05-16T10:44:27.064Z,15.26
2023-05-16T10:47:29.569Z,15.37
2023-05-16T10:50:36.880Z,15.70
2023-05-16T10:53:39.602Z,15.72
2023-05-16T10:56:43.354Z,15.87
2023-05-16T10:59:50.861Z,15.79
2023-05-16T11:02:53.907Z,15.58
2023-05-16T11:06:01.706Z,15.58
2023-05-16T11:09:10.545Z,15.58
2023-05-16T11:12:13.781Z,15.32
2023-05-16T11:15:35.004Z,15.46
2023-05-16T11:18:52.615Z,15.43
2023-05-16T11:22:22.051Z,15.45
2023-05-16T11:25:39.355Z,15.53
2023-05-16T11:28:42.038Z,15.49
2023-05-16T11:31:44.693Z,15.49
2023-05-16T11:34:48.301Z,15.62
2023-05-16T11:37:51.330Z,15.73
2023-05-16T11:40:54.259Z,15.85
2023-05-16T11:43:56.908Z,16.12
2023-05-16T11:47:00.500Z,16.08
2023-05-16T11:50:14.736Z,16.15
2023-05-16T11:53:17.787Z,16.12
2023-05-16T11:56:22.384Z,16.23
2023-05-16T11:59:25.012Z,16.18
2023-05-16T12:02:30.099Z,16.22
2023-05-16T12:05:34.596Z,16.27
2023-05-16T12:08:37.681Z,16.34
2023-05-16T12:11:44.719Z,16.47
2023-05-16T12:14:47.780Z,16.52
2023-05-16T12:17:50.994Z,16.56
2023-05-16T12:20:55.068Z,16.72
2023-05-16T12:24:00.979Z,16.79
2023-05-16T12:27:03.977Z,16.72
2023-05-16T12:30:09.615Z,16.74
2023-05-16T12:33:15.080Z,16.88
2023-05-16T12:36:17.889Z,16.82
2023-05-16T12:39:21.249Z,16.72
2023-05-16T12:42:23.664Z,16.75
2023-05-16T12:45:29.295Z,16.72
2023-05-16T12:48:36.558Z,16.60
2023-05-16T12:51:39.624Z,16.61
2023-05-16T12:54:42.682Z,16.79
2023-05-16T12:57:47.647Z,16.83
2023-05-16T13:00:50.479Z,16.93
2023-05-16T13:03:54.044Z,16.63
2023-05-16T13:06:59.624Z,16.60
2023-05-16T13:10:03.224Z,16.74
2023-05-16T13:13:05.839Z,16.93
2023-05-16T13:16:10.499Z,16.98
2023-05-16T13:19:13.267Z,16.95
2023-05-16T13:22:16.583Z,17.01
2023-05-16T13:25:19.192Z,16.96
2023-05-16T13:28:22.030Z,16.99
2023-05-16T13:31:24.970Z,17.01
2023-05-16T13:34:31.071Z,17.18
2023-05-16T13:37:33.861Z,17.09
2023-05-16T13:40:36.752Z,17.02
2023-05-16T13:43:39.448Z,17.16
2023-05-16T13:46:42.000Z,17.16
2023-05-16T13:49:44.841Z,17.16
2023-05-16T13:52:48.831Z,17.22
2023-05-16T13:55:51.364Z,17.24
2023-05-16T13:59:03.926Z,17.88
2023-05-16T14:02:09.436Z,18.32
2023-05-16T14:05:12.128Z,18.57
2023-05-16T14:08:14.593Z,18.70
2023-05-16T14:11:19.620Z,18.70
2023-05-16T14:14:22.671Z,18.19
2023-05-16T14:17:25.136Z,18.58
2023-05-16T14:20:27.749Z,18.79
2023-05-16T14:23:30.274Z,18.49
2023-05-16T14:26:32.860Z,18.35
2023-05-16T14:29:35.359Z,18.10
2023-05-16T14:32:38.310Z,17.98
2023-05-16T14:35:41.161Z,17.79
2023-05-16T14:38:43.861Z,17.75
2023-05-16T14:41:46.950Z,17.64
2023-05-16T14:44:50.998Z,17.53
2023-05-16T14:47:53.470Z,17.48
2023-05-16T14:50:56.130Z,17.56
2023-05-16T14:53:58.920Z,17.45
2023-05-16T14:57:01.748Z,17.31
2023-05-16T15:00:05.830Z,17.34
2023-05-16T15:03:08.358Z,17.22
2023-05-16T15:06:11.278Z,17.11
2023-05-16T15:09:13.962Z,17.03
2023-05-16T15:12:16.616Z,17.09
2023-05-16T15:15:19.335Z,16.99
2023-05-16T15:18:21.968Z,17.01
2023-05-16T15:21:24.493Z,16.96
2023-05-16T15:24:27.009Z,16.79
2023-05-16T15:27:30.267Z,16.88
2023-05-16T15:30:32.864Z,16.99
2023-05-16T15:33:35.522Z,16.92
2023-05-16T15:36:40.896Z,16.90
2023-05-16T15:39:43.464Z,16.88
2023-05-16T15:42:46.159Z,16.93
2023-05-16T15:45:48.653Z,16.92
2023-05-16T15:48:51.092Z,16.92
2023-05-16T15:51:54.212Z,16.97
2023-05-16T15:54:56.874Z,16.94
2023-05-16T15:57:59.743Z,16.94
2023-05-16T16:01:02.780Z,16.85
2023-05-16T16:04:05.968Z,16.72
2023-05-16T16:07:08.585Z,16.78
2023-05-16T16:10:11.852Z,16.53
2023-05-16T16:13:16.648Z,16.64
2023-05-16T16:16:19.237Z,16.48
2023-05-16T16:19:21.905Z,16.49
2023-05-16T16:22:24.888Z,16.48
2023-05-16T16:25:27.672Z,16.34
2023-05-16T16:28:30.490Z,16.42
2023-05-16T16:31:33.242Z,16.32
2023-05-16T16:34:35.957Z,16.41
2023-05-16T16:37:38.880Z,16.43
2023-05-16T16:40:41.731Z,16.43
2023-05-16T16:43:44.287Z,16.41
2023-05-16T16:46:46.853Z,16.34
2023-05-16T16:49:49.546Z,16.39
2023-05-16T16:52:53.984Z,16.41
2023-05-16T16:55:56.526Z,16.26
2023-05-16T16:58:59.013Z,16.29
2023-05-16T17:02:01.654Z,16.25
2023-05-16T17:05:06.666Z,16.23
2023-05-16T17:08:09.218Z,16.20
2023-05-16T17:11:11.745Z,16.27
2023-05-16T17:14:14.899Z,16.15
2023-05-16T17:17:18.562Z,16.07
2023-05-16T17:20:21.159Z,15.99
2023-05-16T17:23:23.642Z,16.02
2023-05-16T17:26:27.430Z,16.06
2023-05-16T17:29:30.747Z,16.07
2023-05-16T17:32:33.874Z,16.06
2023-05-16T17:35:36.795Z,15.89
2023-05-16T17:38:39.523Z,15.91
2023-05-16T17:41:42.506Z,15.81
2023-05-16T17:44:45.674Z,15.74
2023-05-16T17:47:48.793Z,15.83
2023-05-16T17:50:51.610Z,15.72
2023-05-16T17:53:54.649Z,15.73
2023-05-16T17:56:57.611Z,15.75
2023-05-16T18:00:00.619Z,15.72
2023-05-16T18:03:03.350Z,15.63
2023-05-16T18:06:07.280Z,15.69
2023-05-16T18:09:10.540Z,15.61
2023-05-16T18:12:13.383Z,15.64
2023-05-16T18:15:16.320Z,15.55
2023-05-16T18:18:19.137Z,15.62
2023-05-16T18:21:21.824Z,15.49
2023-05-16T18:24:24.641Z,15.52
2023-05-16T18:27:27.248Z,15.55
2023-05-16T18:30:30.426Z,15.53
2023-05-16T18:33:33.416Z,15.53
2023-05-16T18:36:36.333Z,15.50
2023-05-16T18:39:39.070Z,15.32
2023-05-16T18:42:41.932Z,15.39
2023-05-16T18:45:44.765Z,15.37
2023-05-16T18:48:47.339Z,15.47
2023-05-16T18:51:49.904Z,15.38
2023-05-16T18:54:52.700Z,15.26
2023-05-16T18:57:55.547Z,15.34
2023-05-16T19:00:58.414Z,15.27
2023-05-16T19:04:01.299Z,15.17
2023-05-16T19:07:05.167Z,15.18
2023-05-16T19:10:09.248Z,15.18
2023-05-16T19:13:11.858Z,15.21
2023-05-16T19:16:15.172Z,15.21
2023-05-16T19:19:18.012Z,15.17
2023-05-16T19:22:21.003Z,15.05
2023-05-16T19:25:23.487Z,15.13
2023-05-16T19:28:26.569Z,15.22
2023-05-16T19:31:29.487Z,15.12
2023-05-16T19:34:33.241Z,15.09
2023-05-16T19:37:35.779Z,15.12
2023-05-16T19:40:38.221Z,15.08
2023-05-16T19:43:40.734Z,15.08
2023-05-16T19:46:43.231Z,15.08
2023-05-16T19:49:46.112Z,14.98
2023-05-16T19:52:48.648Z,14.86
2023-05-16T19:55:51.301Z,14.84
2023-05-16T19:58:54.004Z,14.65
2023-05-16T20:01:56.428Z,14.64
2023-05-16T20:04:58.936Z,14.59
2023-05-16T20:14:08.893Z,14.44
2023-05-16T20:17:11.397Z,14.46
2023-05-16T20:20:13.947Z,14.36
2023-05-16T20:23:49.075Z,14.43
2023-05-16T20:26:51.602Z,14.44
2023-05-16T20:36:00.869Z,14.58
2023-05-16T20:39:04.042Z,14.51
2023-05-16T20:42:11.117Z,14.63
2023-05-16T20:45:13.771Z,14.66
2023-05-16T20:48:16.573Z,14.70
2023-05-16T20:51:19.161Z,14.77
2023-05-16T20:54:21.698Z,14.80
2023-05-16T20:57:24.525Z,14.73
2023-05-16T21:00:26.980Z,14.85
2023-05-16T21:03:29.582Z,14.75
2023-05-16T21:06:32.314Z,14.82
2023-05-16T21:09:37.202Z,14.75
2023-05-16T21:12:39.790Z,14.77
2023-05-16T21:15:42.281Z,14.83
2023-05-16T21:18:44.942Z,14.84
2023-05-16T21:21:47.559Z,14.83
2023-05-16T21:24:50.354Z,14.89
2023-05-16T21:27:53.106Z,14.84
2023-05-16T21:30:56.279Z,14.84
2023-05-16T21:33:58.745Z,14.82
2023-05-16T21:37:01.794Z,14.85
2023-05-16T21:40:04.579Z,14.83
2023-05-16T21:43:07.162Z,14.91
2023-05-16T21:46:09.688Z,14.97
2023-05-16T21:49:12.280Z,14.95
2023-05-16T21:52:14.793Z,14.95
2023-05-16T21:55:17.640Z,14.95
2023-05-16T21:58:20.170Z,14.90
2023-05-16T22:01:25.338Z,14.96
2023-05-16T22:04:28.105Z,14.97
2023-05-16T22:07:31.742Z,14.97
2023-05-16T22:10:34.431Z,14.99
2023-05-16T22:13:38.342Z,14.99
2023-05-16T22:16:41.109Z,14.96
2023-05-16T22:19:43.793Z,14.91
2023-05-16T22:22:46.391Z,14.88
2023-05-16T22:25:48.912Z,14.83
2023-05-16T22:28:51.405Z,14.96
2023-05-16T22:31:54.265Z,14.95
2023-05-16T22:34:57.275Z,14.96
2023-05-16T22:37:59.904Z,14.84
2023-05-16T22:41:02.414Z,14.85
2023-05-16T22:44:05.335Z,14.84
2023-05-16T22:47:08.020Z,14.82
2023-05-16T22:50:11.477Z,14.87
2023-05-16T22:53:13.988Z,14.87
2023-05-16T22:56:16.501Z,14.81
2023-05-16T22:59:19.033Z,14.84
2023-05-16T23:02:21.536Z,14.65
2023-05-16T23:05:24.005Z,14.74
2023-05-16T23:08:26.572Z,14.71
2023-05-16T23:11:29.065Z,14.68
2023-05-16T23:14:31.694Z,14.50
2023-05-16T23:17:34.240Z,14.43
2023-05-16T23:20:37.635Z,14.40
2023-05-16T23:23:40.320Z,14.38
2023-05-16T23:26:42.783Z,14.38
2023-05-16T23:29:45.671Z,14.25
2023-05-16T23:32:48.265Z,14.30
2023-05-16T23:35:50.795Z,14.23
2023-05-16T23:38:53.542Z,14.23
2023-05-16T23:41:56.055Z,14.17
2023-05-16T23:44:58.507Z,14.12
2023-05-16T23:48:01.061Z,14.04
2023-05-16T23:51:07.394Z,14.03
2023-05-16T23:54:09.916Z,13.83
2023-05-16T23:57:12.414Z,13.88
